createdAt,value
2018-07-17T00:02:28.156Z,4.47
2018-07-17T00:04:57.176Z,4.63
2018-07-17T00:07:26.176Z,5.20
2018-07-17T00:09:55.092Z,4.77
2018-07-17T00:12:24.006Z,5.33
2018-07-17T00:14:52.956Z,5.57
2018-07-17T00:17:21.856Z,5.00
2018-07-17T00:19:50.808Z,5.40
2018-07-17T00:22:19.700Z,5.03
2018-07-17T00:24:48.636Z,5.90
2018-07-17T00:27:17.604Z,5.43
2018-07-17T00:29:46.544Z,5.47
2018-07-17T00:32:15.444Z,5.77
2018-07-17T00:34:44.462Z,5.30
2018-07-17T00:37:13.362Z,6.03
2018-07-17T00:39:42.455Z,6.03
2018-07-17T00:42:11.534Z,6.43
2018-07-17T00:44:40.443Z,5.93
2018-07-17T00:47:09.487Z,6.63
2018-07-17T00:49:38.312Z,8.43
2018-07-17T00:52:07.560Z,8.00
2018-07-17T00:54:36.545Z,8.87
2018-07-17T00:57:05.484Z,9.67
2018-07-17T00:59:34.439Z,8.87
2018-07-17T01:02:08.760Z,10.53
2018-07-17T01:04:43.276Z,9.03
2018-07-17T01:07:17.690Z,9.27
2018-07-17T01:09:51.891Z,10.23
2018-07-17T01:12:20.101Z,10.13
2018-07-17T01:14:54.362Z,10.97
2018-07-17T01:17:23.734Z,13.70
2018-07-17T01:19:52.704Z,11.23
2018-07-17T01:22:21.635Z,10.57
2018-07-17T01:24:50.634Z,11.17
2018-07-17T01:27:19.598Z,10.67
2018-07-17T01:29:48.585Z,10.40
2018-07-17T01:32:17.519Z,13.30
2018-07-17T01:34:46.418Z,11.03
2018-07-17T01:37:15.459Z,11.10
2018-07-17T01:39:44.402Z,11.87
2018-07-17T01:42:13.338Z,13.57
2018-07-17T01:44:42.236Z,11.80
2018-07-17T01:47:11.123Z,14.10
2018-07-17T01:49:40.092Z,12.60
2018-07-17T01:52:09.916Z,11.17
2018-07-17T01:54:38.809Z,11.70
2018-07-17T01:57:07.726Z,13.07
2018-07-17T01:59:36.702Z,11.13
2018-07-17T02:02:05.892Z,10.60
2018-07-17T02:04:34.834Z,10.60
2018-07-17T02:07:03.730Z,8.83
2018-07-17T02:09:32.945Z,7.87
2018-07-17T02:12:01.961Z,8.37
2018-07-17T02:14:30.944Z,8.70
2018-07-17T02:16:59.819Z,10.20
2018-07-17T02:19:28.742Z,7.90
2018-07-17T02:21:57.718Z,8.40
2018-07-17T02:24:26.792Z,8.33
2018-07-17T02:26:55.736Z,7.37
2018-07-17T02:29:24.706Z,6.83
2018-07-17T02:31:53.664Z,6.77
2018-07-17T02:34:22.583Z,5.83
2018-07-17T02:36:51.548Z,5.77
2018-07-17T02:39:20.548Z,7.33
2018-07-17T02:41:49.418Z,5.90
2018-07-17T02:44:18.317Z,5.87
2018-07-17T02:46:47.220Z,6.03
2018-07-17T02:49:16.132Z,5.80
2018-07-17T02:51:45.256Z,8.83
2018-07-17T02:54:14.200Z,6.30
2018-07-17T02:56:43.229Z,7.23
2018-07-17T02:59:12.136Z,8.07
2018-07-17T03:01:41.075Z,6.13
2018-07-17T03:04:10.096Z,5.70
2018-07-17T03:06:39.110Z,8.20
2018-07-17T03:09:08.345Z,6.27
2018-07-17T03:11:37.410Z,5.23
2018-07-17T03:14:11.885Z,6.23
2018-07-17T03:16:40.864Z,5.90
2018-07-17T03:19:09.890Z,7.50
2018-07-17T03:21:38.855Z,5.93
2018-07-17T03:24:08.186Z,5.87
2018-07-17T03:26:37.197Z,6.27
2018-07-17T03:29:06.134Z,7.23
2018-07-17T03:31:35.082Z,8.80
2018-07-17T03:34:04.223Z,8.03
2018-07-17T03:36:33.164Z,7.17
2018-07-17T03:39:02.048Z,7.33
2018-07-17T03:41:30.959Z,8.40
2018-07-17T03:43:59.936Z,7.40
2018-07-17T03:46:28.827Z,7.40
2018-07-17T03:48:57.876Z,6.60
2018-07-17T03:51:26.870Z,7.47
2018-07-17T03:53:55.922Z,6.00
2018-07-17T03:56:24.856Z,6.30
2018-07-17T03:58:53.871Z,7.17
2018-07-17T04:01:22.814Z,8.47
2018-07-17T04:03:51.711Z,10.40
2018-07-17T04:06:20.667Z,7.37
2018-07-17T04:08:49.649Z,7.00
2018-07-17T04:11:24.047Z,7.03
2018-07-17T04:13:53.056Z,8.27
2018-07-17T04:16:21.979Z,7.00
2018-07-17T04:18:50.920Z,9.47
2018-07-17T04:21:19.871Z,7.50
2018-07-17T04:23:48.799Z,7.77
2018-07-17T04:26:17.806Z,7.50
2018-07-17T04:28:46.736Z,6.33
2018-07-17T04:31:15.695Z,5.90
2018-07-17T04:33:44.689Z,6.63
2018-07-17T04:36:13.690Z,8.37
2018-07-17T04:38:42.716Z,4.73
2018-07-17T04:41:11.628Z,10.40
2018-07-17T04:43:40.591Z,7.43
2018-07-17T04:46:09.590Z,4.67
2018-07-17T04:48:38.504Z,7.07
2018-07-17T04:51:07.770Z,7.03
2018-07-17T04:53:36.846Z,6.23
2018-07-17T04:56:05.847Z,4.37
2018-07-17T04:58:34.835Z,6.57
2018-07-17T05:01:03.915Z,7.83
2018-07-17T05:03:32.868Z,7.97
2018-07-17T05:06:01.822Z,6.57
2018-07-17T05:08:30.778Z,6.97
2018-07-17T05:10:59.835Z,6.17
2018-07-17T05:13:28.754Z,9.00
2018-07-17T05:15:57.698Z,7.00
2018-07-17T05:18:26.583Z,6.20
2018-07-17T05:20:55.584Z,9.57
2018-07-17T05:23:24.548Z,11.67
2018-07-17T05:25:53.589Z,14.97
2018-07-17T05:28:22.527Z,9.57
2018-07-17T05:30:51.487Z,8.77
2018-07-17T05:33:20.565Z,10.33
2018-07-17T05:35:49.601Z,9.33
2018-07-17T05:38:18.649Z,12.60
2018-07-17T05:40:47.800Z,7.43
2018-07-17T05:43:16.972Z,12.47
2018-07-17T05:45:45.936Z,10.50
2018-07-17T05:48:14.825Z,10.77
2018-07-17T05:50:43.797Z,13.37
2018-07-17T05:53:12.867Z,11.20
2018-07-17T05:55:41.907Z,10.67
2018-07-17T05:58:10.839Z,10.90
2018-07-17T06:00:39.853Z,11.93
2018-07-17T06:03:08.863Z,14.80
2018-07-17T06:05:37.849Z,12.07
2018-07-17T06:08:06.903Z,11.53
2018-07-17T06:10:35.935Z,14.03
2018-07-17T06:13:04.844Z,11.27
2018-07-17T06:15:33.790Z,11.40
2018-07-17T06:18:02.724Z,20.83
2018-07-17T06:20:31.632Z,15.77
2018-07-17T06:23:00.632Z,15.83
2018-07-17T06:25:29.600Z,18.03
2018-07-17T06:27:58.512Z,18.00
2018-07-17T06:30:27.498Z,19.97
2018-07-17T06:32:56.424Z,16.33
2018-07-17T06:35:25.344Z,18.47
2018-07-17T06:37:54.378Z,19.63
2018-07-17T06:40:23.326Z,14.13
2018-07-17T06:42:52.332Z,17.27
2018-07-17T06:45:21.307Z,17.07
2018-07-17T06:47:54.316Z,18.73
2018-07-17T06:50:23.339Z,17.13
2018-07-17T06:52:52.403Z,19.20
2018-07-17T06:55:21.355Z,13.10
2018-07-17T06:57:50.275Z,13.77
2018-07-17T07:00:19.273Z,15.40
2018-07-17T07:02:48.269Z,11.93
2018-07-17T07:05:17.322Z,12.87
2018-07-17T07:07:46.222Z,12.93
2018-07-17T07:10:15.239Z,10.67
2018-07-17T07:12:44.139Z,15.63
2018-07-17T07:15:13.095Z,9.63
2018-07-17T07:17:42.058Z,9.10
2018-07-17T07:20:11.038Z,8.47
2018-07-17T07:22:40.105Z,14.00
2018-07-17T07:25:09.059Z,12.50
2018-07-17T07:27:38.001Z,11.40
2018-07-17T07:30:07.295Z,8.90
2018-07-17T07:32:36.283Z,6.97
2018-07-17T07:35:05.357Z,6.60
2018-07-17T07:37:34.275Z,7.80
2018-07-17T07:40:03.566Z,7.20
2018-07-17T07:42:32.763Z,8.93
2018-07-17T07:45:01.799Z,9.17
2018-07-17T07:47:30.791Z,10.00
2018-07-17T07:50:00.302Z,10.93
2018-07-17T07:52:29.221Z,6.97
2018-07-17T08:16:16.781Z,9.77
2018-07-17T09:10:35.585Z,6.40
2018-07-17T09:13:06.708Z,7.77
2018-07-17T09:15:36.006Z,9.87
2018-07-17T09:18:05.233Z,4.77
2018-07-17T09:20:34.241Z,3.50
2018-07-17T09:23:08.600Z,8.67
2018-07-17T09:25:37.724Z,3.97
2018-07-17T09:28:06.762Z,6.07
2018-07-17T09:30:41.063Z,5.27
2018-07-17T09:33:10.015Z,4.50
2018-07-17T09:35:38.981Z,4.17
2018-07-17T09:38:08.692Z,6.40
2018-07-17T09:40:37.868Z,6.70
2018-07-17T09:43:07.069Z,6.30
2018-07-17T09:45:36.008Z,5.87
2018-07-17T09:48:06.085Z,6.77
2018-07-17T09:50:34.988Z,5.97
2018-07-17T09:53:03.934Z,5.67
2018-07-17T09:55:32.921Z,6.97
2018-07-17T09:58:01.923Z,4.60
2018-07-17T10:00:39.065Z,7.97
2018-07-17T10:03:08.071Z,4.57
2018-07-17T10:05:37.083Z,3.33
2018-07-17T10:08:06.401Z,5.97
2018-07-17T10:10:35.357Z,8.30
2018-07-17T10:13:04.387Z,9.50
2018-07-17T10:15:33.369Z,6.87
2018-07-17T10:18:02.348Z,5.20
2018-07-17T10:20:31.284Z,5.47
2018-07-17T10:23:00.263Z,6.10
2018-07-17T10:25:29.221Z,6.00
2018-07-17T10:27:58.256Z,6.57
2018-07-17T10:30:27.205Z,4.53
2018-07-17T10:32:56.199Z,9.43
2018-07-17T10:35:31.486Z,7.53
2018-07-17T10:38:00.418Z,7.47
2018-07-17T10:40:29.396Z,5.30
2018-07-17T10:42:58.313Z,6.50
2018-07-17T10:45:27.359Z,8.07
2018-07-17T10:47:57.100Z,5.27
2018-07-17T10:50:26.032Z,10.67
2018-07-17T10:52:57.062Z,7.40
2018-07-17T10:55:26.043Z,6.50
2018-07-17T10:57:55.177Z,6.20
2018-07-17T11:00:24.478Z,7.90
2018-07-17T11:02:53.439Z,7.17
2018-07-17T11:05:22.340Z,9.83
2018-07-17T11:07:51.291Z,9.53
2018-07-17T11:10:21.202Z,7.90
2018-07-17T11:12:55.420Z,4.57
2018-07-17T11:15:24.421Z,5.00
2018-07-17T11:18:03.286Z,4.50
2018-07-17T11:20:32.366Z,7.20
2018-07-17T11:23:01.282Z,5.97
2018-07-17T11:25:30.404Z,6.47
2018-07-17T11:27:59.343Z,11.60
2018-07-17T11:30:28.240Z,4.70
2018-07-17T11:33:00.714Z,6.27
2018-07-17T11:35:29.683Z,5.07
2018-07-17T11:37:58.700Z,8.43
2018-07-17T11:40:27.709Z,8.53
2018-07-17T11:42:56.674Z,6.60
2018-07-17T11:45:25.563Z,9.10
2018-07-17T11:48:01.444Z,8.10
2018-07-17T11:50:30.450Z,5.43
2018-07-17T11:52:59.483Z,4.20
2018-07-17T11:55:28.424Z,8.43
2018-07-17T11:57:57.428Z,7.83
2018-07-17T12:00:31.996Z,8.13
2018-07-17T12:03:00.978Z,6.10
2018-07-17T12:05:30.103Z,12.27
2018-07-17T12:07:58.994Z,5.80
2018-07-17T12:10:27.952Z,5.50
2018-07-17T12:12:56.980Z,9.27
2018-07-17T12:15:25.843Z,5.40
2018-07-17T12:18:07.495Z,5.57
2018-07-17T12:20:36.695Z,7.13
2018-07-17T12:23:05.804Z,6.00
2018-07-17T12:25:34.899Z,7.20
2018-07-17T12:28:04.233Z,6.57
2018-07-17T12:30:33.071Z,5.63
2018-07-17T12:33:02.170Z,9.63
2018-07-17T12:35:31.175Z,5.33
2018-07-17T12:38:00.124Z,9.97
2018-07-17T12:40:29.024Z,4.60
2018-07-17T12:43:01.024Z,5.03
2018-07-17T12:45:29.950Z,7.40
2018-07-17T12:48:00.672Z,5.67
2018-07-17T12:50:29.599Z,4.20
2018-07-17T12:52:58.605Z,4.23
2018-07-17T12:55:27.693Z,4.53
2018-07-17T12:57:56.565Z,5.73
2018-07-17T13:00:37.762Z,8.10
2018-07-17T13:03:07.338Z,6.43
2018-07-17T13:05:37.324Z,4.27
2018-07-17T13:08:06.291Z,4.63
2018-07-17T13:10:35.294Z,3.23
2018-07-17T13:13:04.228Z,4.13
2018-07-17T13:15:33.113Z,2.63
2018-07-17T13:18:02.674Z,3.37
2018-07-17T13:20:31.572Z,4.57
2018-07-17T13:23:00.550Z,4.50
2018-07-17T13:25:29.556Z,4.43
2018-07-17T13:27:58.517Z,2.53
2018-07-17T13:30:27.491Z,5.93
2018-07-17T13:32:56.472Z,4.40
2018-07-17T13:35:25.387Z,3.53
2018-07-17T13:37:54.323Z,4.27
2018-07-17T13:40:23.304Z,7.37
2018-07-17T13:42:52.306Z,3.13
2018-07-17T13:45:21.440Z,3.33
2018-07-17T13:47:50.342Z,3.70
2018-07-17T13:50:19.353Z,4.37
2018-07-17T13:52:48.257Z,3.30
2018-07-17T13:55:17.103Z,3.87
2018-07-17T13:57:46.144Z,5.33
2018-07-17T14:00:15.088Z,4.33
2018-07-17T14:02:44.101Z,4.47
2018-07-17T14:05:13.033Z,3.23
2018-07-17T14:07:42.030Z,4.27
2018-07-17T14:10:10.924Z,2.53
2018-07-17T14:12:39.852Z,2.70
2018-07-17T14:15:08.992Z,4.03
2018-07-17T14:17:38.021Z,4.40
2018-07-17T14:20:07.003Z,2.53
2018-07-17T14:22:35.933Z,2.27
2018-07-17T14:25:04.876Z,2.97
2018-07-17T14:27:33.895Z,3.90
2018-07-17T14:30:02.806Z,2.70
2018-07-17T14:32:35.029Z,4.00
2018-07-17T14:35:04.351Z,2.97
2018-07-17T14:37:33.299Z,3.10
2018-07-17T14:40:02.344Z,2.87
2018-07-17T14:42:31.271Z,6.97
2018-07-17T14:45:00.179Z,3.93
2018-07-17T14:47:29.074Z,8.57
2018-07-17T14:49:57.977Z,4.77
2018-07-17T14:52:26.909Z,8.93
2018-07-17T14:54:55.889Z,5.47
2018-07-17T14:57:24.790Z,6.30
2018-07-17T14:59:53.695Z,3.13
2018-07-17T15:02:22.631Z,2.80
2018-07-17T15:04:51.659Z,3.60
2018-07-17T15:07:21.951Z,5.33
2018-07-17T15:09:50.936Z,6.00
2018-07-17T15:12:19.892Z,3.50
2018-07-17T15:14:48.816Z,6.53
2018-07-17T15:17:17.739Z,6.00
2018-07-17T15:19:46.714Z,6.73
2018-07-17T15:22:15.645Z,4.70
2018-07-17T15:24:44.552Z,6.23
2018-07-17T15:27:13.613Z,4.10
2018-07-17T15:29:42.579Z,10.43
2018-07-17T15:32:11.588Z,9.17
2018-07-17T15:34:40.476Z,5.93
2018-07-17T15:37:09.471Z,5.40
2018-07-17T15:39:38.430Z,4.47
2018-07-17T15:42:07.486Z,4.87
2018-07-17T15:44:36.397Z,6.03
2018-07-17T15:47:05.337Z,7.70
2018-07-17T15:49:34.264Z,8.60
2018-07-17T15:52:08.823Z,6.07
2018-07-17T15:54:37.941Z,5.73
2018-07-17T15:57:06.943Z,6.70
2018-07-17T15:59:36.110Z,5.70
2018-07-17T16:02:05.048Z,5.83
2018-07-17T16:04:33.964Z,7.37
2018-07-17T16:07:02.908Z,6.13
2018-07-17T16:09:31.941Z,8.17
2018-07-17T16:12:00.870Z,6.97
2018-07-17T16:14:30.131Z,8.37
2018-07-17T16:16:58.753Z,6.73
2018-07-17T16:19:27.707Z,7.13
2018-07-17T16:21:56.692Z,5.93
2018-07-17T16:24:25.672Z,4.77
2018-07-17T16:26:54.754Z,4.30
2018-07-17T16:29:23.746Z,4.67
2018-07-17T16:31:52.755Z,5.90
2018-07-17T16:34:21.706Z,5.93
2018-07-17T16:36:50.691Z,7.57
2018-07-17T16:39:19.733Z,6.20
2018-07-17T16:41:48.638Z,5.33
2018-07-17T16:44:17.595Z,6.67
2018-07-17T16:46:46.560Z,5.00
2018-07-17T16:49:15.525Z,7.10
2018-07-17T16:51:44.535Z,4.80
2018-07-17T16:54:13.566Z,4.73
2018-07-17T16:56:42.502Z,4.70
2018-07-17T16:59:11.956Z,5.60
2018-07-17T17:01:40.906Z,6.03
2018-07-17T17:04:09.867Z,5.27
2018-07-17T17:06:38.966Z,7.97
2018-07-17T17:09:10.360Z,4.80
2018-07-17T17:11:39.460Z,3.57
2018-07-17T17:14:08.428Z,4.30
2018-07-17T17:16:37.568Z,3.50
2018-07-17T17:19:07.106Z,6.00
2018-07-17T17:21:36.057Z,4.20
2018-07-17T17:24:05.533Z,5.87
2018-07-17T17:26:34.918Z,5.87
2018-07-17T17:29:03.937Z,4.33
2018-07-17T17:31:32.904Z,9.47
2018-07-17T17:34:01.834Z,3.83
2018-07-17T17:36:30.924Z,6.43
2018-07-17T17:38:59.782Z,5.27
2018-07-17T17:41:28.907Z,7.37
2018-07-17T17:43:57.872Z,5.43
2018-07-17T17:46:26.862Z,5.53
2018-07-17T17:48:55.890Z,6.20
2018-07-17T17:51:24.780Z,5.33
2018-07-17T17:53:54.276Z,3.87
2018-07-17T17:56:23.266Z,6.27
2018-07-17T17:58:52.642Z,6.43
2018-07-17T18:01:21.641Z,4.87
2018-07-17T18:03:50.582Z,9.97
2018-07-17T18:06:19.504Z,5.17
2018-07-17T18:08:48.649Z,5.57
2018-07-17T18:11:17.565Z,9.37
2018-07-17T18:13:46.500Z,5.23
2018-07-17T18:16:15.520Z,7.60
2018-07-17T18:18:44.564Z,7.43
2018-07-17T18:21:13.488Z,4.57
2018-07-17T18:23:42.468Z,3.30
2018-07-17T18:26:11.429Z,4.53
2018-07-17T18:28:40.456Z,3.83
2018-07-17T18:31:09.551Z,5.37
2018-07-17T18:33:38.477Z,3.57
2018-07-17T18:36:07.396Z,4.80
2018-07-17T18:38:36.455Z,5.37
2018-07-17T18:41:05.431Z,4.53
2018-07-17T18:43:34.605Z,4.80
2018-07-17T18:46:04.362Z,5.00
2018-07-17T18:48:33.307Z,3.67
2018-07-17T18:51:02.396Z,2.90
2018-07-17T18:53:31.803Z,11.90
2018-07-17T18:56:00.800Z,3.47
2018-07-17T18:58:29.741Z,3.37
2018-07-17T19:00:58.759Z,4.80
2018-07-17T19:03:27.688Z,7.13
2018-07-17T19:05:56.628Z,5.07
2018-07-17T19:08:25.529Z,3.50
2018-07-17T19:10:54.508Z,5.70
2018-07-17T19:13:23.473Z,8.57
2018-07-17T19:15:52.481Z,3.37
2018-07-17T19:18:21.379Z,5.43
2018-07-17T19:20:50.628Z,3.07
2018-07-17T19:23:19.661Z,3.67
2018-07-17T19:25:48.623Z,2.57
2018-07-17T19:28:17.623Z,4.03
2018-07-17T19:30:46.599Z,2.57
2018-07-17T19:33:15.601Z,2.97
2018-07-17T19:35:44.652Z,2.87
2018-07-17T19:38:13.551Z,3.43
2018-07-17T19:40:42.622Z,3.77
2018-07-17T19:43:11.761Z,4.03
2018-07-17T19:45:40.800Z,4.53
2018-07-17T19:48:09.715Z,6.20
2018-07-17T19:50:38.673Z,5.87
2018-07-17T19:53:07.699Z,3.37
2018-07-17T19:55:36.725Z,3.43
2018-07-17T19:58:05.727Z,4.03
2018-07-17T20:00:34.669Z,8.37
2018-07-17T20:03:03.635Z,2.60
2018-07-17T20:05:32.649Z,7.40
2018-07-17T20:08:01.618Z,3.63
2018-07-17T20:10:30.550Z,5.60
2018-07-17T20:12:59.460Z,4.83
2018-07-17T20:15:28.423Z,4.63
2018-07-17T20:17:57.343Z,3.40
2018-07-17T20:20:26.303Z,5.50
2018-07-17T20:22:55.279Z,4.47
2018-07-17T20:25:24.291Z,5.10
2018-07-17T20:27:53.247Z,6.23
2018-07-17T20:30:22.177Z,3.57
2018-07-17T20:32:51.131Z,5.90
2018-07-17T20:35:20.076Z,2.90
2018-07-17T20:37:49.219Z,3.77
2018-07-17T20:40:18.224Z,5.60
2018-07-17T20:42:47.252Z,4.23
2018-07-17T20:45:16.229Z,3.07
2018-07-17T20:47:45.230Z,3.27
2018-07-17T20:50:14.160Z,4.03
2018-07-17T20:52:43.167Z,4.57
2018-07-17T20:55:12.248Z,3.53
2018-07-17T20:57:41.226Z,3.80
2018-07-17T21:00:10.206Z,6.47
2018-07-17T21:02:42.132Z,5.47
2018-07-17T21:05:11.098Z,5.37
2018-07-17T21:07:40.170Z,2.60
2018-07-17T21:10:09.146Z,2.97
2018-07-17T21:12:38.126Z,5.27
2018-07-17T21:15:07.137Z,6.00
2018-07-17T21:17:36.192Z,2.47
2018-07-17T21:20:05.506Z,2.70
2018-07-17T21:22:34.916Z,4.40
2018-07-17T21:25:03.935Z,3.43
2018-07-17T21:27:33.502Z,5.60
2018-07-17T21:30:02.532Z,5.17
2018-07-17T21:32:31.482Z,6.53
2018-07-17T21:35:00.478Z,4.60
2018-07-17T21:37:29.402Z,4.47
2018-07-17T21:39:58.666Z,3.60
2018-07-17T21:42:27.652Z,3.43
2018-07-17T21:44:56.574Z,4.20
2018-07-17T21:47:25.489Z,6.20
2018-07-17T21:49:54.440Z,3.80
2018-07-17T21:52:23.549Z,3.57
2018-07-17T21:54:52.461Z,3.83
2018-07-17T21:57:21.327Z,5.17
2018-07-17T21:59:50.344Z,5.17
2018-07-17T22:02:19.270Z,6.50
2018-07-17T22:04:48.212Z,3.27
2018-07-17T22:07:17.138Z,5.33
2018-07-17T22:09:46.152Z,6.10
2018-07-17T22:12:16.250Z,7.17
